sensor_id;sensor_type;location;lat;lon;timestamp;P1;durP1;ratioP1;P2;durP2;ratioP2
71572;SDS011;59408;51.032;9.410;2023-04-01T00:00:58;4.97;;;1.40;;
71572;SDS011;59408;51.032;9.410;2023-04-01T00:03:27;5.88;;;1.23;;
71572;SDS011;59408;51.032;9.410;2023-04-01T00:05:55;10.38;;;1.50;;
71572;SDS011;59408;51.032;9.410;2023-04-01T00:08:22;9.70;;;1.50;;
71572;SDS011;59408;51.032;9.410;2023-04-01T00:10:49;4.88;;;1.38;;
71572;SDS011;59408;51.032;9.410;2023-04-01T00:13:16;3.83;;;0.90;;
71572;SDS011;59408;51.032;9.410;2023-04-01T00:15:43;6.65;;;1.30;;
71572;SDS011;59408;51.032;9.410;2023-04-01T00:18:10;4.70;;;1.42;;
71572;SDS011;59408;51.032;9.410;2023-04-01T00:20:38;5.47;;;1.55;;
71572;SDS011;59408;51.032;9.410;2023-04-01T00:23:05;5.05;;;1.20;;
71572;SDS011;59408;51.032;9.410;2023-04-01T00:25:32;5.60;;;1.23;;
71572;SDS011;59408;51.032;9.410;2023-04-01T00:27:59;6.25;;;1.35;;
71572;SDS011;59408;51.032;9.410;2023-04-01T00:30:26;5.70;;;1.45;;
71572;SDS011;59408;51.032;9.410;2023-04-01T00:32:52;5.68;;;1.20;;
71572;SDS011;59408;51.032;9.410;2023-04-01T00:35:19;6.47;;;1.20;;
71572;SDS011;59408;51.032;9.410;2023-04-01T00:37:47;7.10;;;1.20;;
71572;SDS011;59408;51.032;9.410;2023-04-01T00:40:21;5.75;;;1.20;;
71572;SDS011;59408;51.032;9.410;2023-04-01T00:42:50;5.85;;;1.40;;
71572;SDS011;59408;51.032;9.410;2023-04-01T00:45:23;6.00;;;1.38;;
71572;SDS011;59408;51.032;9.410;2023-04-01T00:47:54;7.53;;;1.50;;
71572;SDS011;59408;51.032;9.410;2023-04-01T00:50:22;6.33;;;1.30;;
71572;SDS011;59408;51.032;9.410;2023-04-01T00:52:52;7.03;;;1.60;;
71572;SDS011;59408;51.032;9.410;2023-04-01T00:55:19;6.78;;;1.70;;
71572;SDS011;59408;51.032;9.410;2023-04-01T00:57:48;6.90;;;1.38;;
71572;SDS011;59408;51.032;9.410;2023-04-01T01:00:17;6.50;;;1.50;;
71572;SDS011;59408;51.032;9.410;2023-04-01T01:02:44;5.20;;;1.60;;
71572;SDS011;59408;51.032;9.410;2023-04-01T01:05:12;7.07;;;1.60;;
71572;SDS011;59408;51.032;9.410;2023-04-01T01:07:41;5.82;;;1.50;;
71572;SDS011;59408;51.032;9.410;2023-04-01T01:10:17;5.72;;;1.52;;
71572;SDS011;59408;51.032;9.410;2023-04-01T01:12:48;5.15;;;1.60;;
71572;SDS011;59408;51.032;9.410;2023-04-01T01:15:26;6.73;;;1.47;;
71572;SDS011;59408;51.032;9.410;2023-04-01T01:17:57;8.23;;;1.60;;
71572;SDS011;59408;51.032;9.410;2023-04-01T01:23:35;9.95;;;1.67;;
71572;SDS011;59408;51.032;9.410;2023-04-01T01:26:22;7.05;;;1.80;;
71572;SDS011;59408;51.032;9.410;2023-04-01T01:29:08;6.60;;;1.70;;
71572;SDS011;59408;51.032;9.410;2023-04-01T01:31:45;6.40;;;1.50;;
71572;SDS011;59408;51.032;9.410;2023-04-01T01:34:21;5.88;;;1.40;;
71572;SDS011;59408;51.032;9.410;2023-04-01T01:36:57;6.65;;;1.70;;
71572;SDS011;59408;51.032;9.410;2023-04-01T01:39:30;5.03;;;1.42;;
71572;SDS011;59408;51.032;9.410;2023-04-01T01:42:00;7.00;;;1.73;;
71572;SDS011;59408;51.032;9.410;2023-04-01T01:44:29;6.18;;;1.50;;
71572;SDS011;59408;51.032;9.410;2023-04-01T01:46:58;5.78;;;1.40;;
71572;SDS011;59408;51.032;9.410;2023-04-01T01:49:26;5.68;;;1.20;;
71572;SDS011;59408;51.032;9.410;2023-04-01T01:51:53;6.63;;;1.65;;
71572;SDS011;59408;51.032;9.410;2023-04-01T01:54:21;5.30;;;1.57;;
71572;SDS011;59408;51.032;9.410;2023-04-01T01:56:49;6.38;;;1.40;;
71572;SDS011;59408;51.032;9.410;2023-04-01T01:59:21;6.32;;;1.35;;
71572;SDS011;59408;51.032;9.410;2023-04-01T02:01:53;9.00;;;1.70;;
71572;SDS011;59408;51.032;9.410;2023-04-01T02:04:22;5.72;;;1.48;;
71572;SDS011;59408;51.032;9.410;2023-04-01T02:06:50;8.13;;;1.50;;
71572;SDS011;59408;51.032;9.410;2023-04-01T02:09:25;6.78;;;1.40;;
71572;SDS011;59408;51.032;9.410;2023-04-01T02:11:53;5.72;;;1.55;;
71572;SDS011;59408;51.032;9.410;2023-04-01T02:14:23;5.68;;;1.48;;
71572;SDS011;59408;51.032;9.410;2023-04-01T02:16:53;4.50;;;1.30;;
71572;SDS011;59408;51.032;9.410;2023-04-01T02:19:24;5.43;;;1.30;;
71572;SDS011;59408;51.032;9.410;2023-04-01T02:21:55;5.05;;;1.30;;
71572;SDS011;59408;51.032;9.410;2023-04-01T02:24:27;4.60;;;1.33;;
71572;SDS011;59408;51.032;9.410;2023-04-01T02:26:56;6.57;;;1.38;;
71572;SDS011;59408;51.032;9.410;2023-04-01T02:29:23;5.47;;;1.30;;
71572;SDS011;59408;51.032;9.410;2023-04-01T02:31:51;4.50;;;1.20;;
71572;SDS011;59408;51.032;9.410;2023-04-01T02:34:19;6.13;;;1.52;;
71572;SDS011;59408;51.032;9.410;2023-04-01T02:36:47;5.78;;;1.17;;
71572;SDS011;59408;51.032;9.410;2023-04-01T02:39:15;5.40;;;1.20;;
71572;SDS011;59408;51.032;9.410;2023-04-01T02:41:44;4.53;;;1.30;;
71572;SDS011;59408;51.032;9.410;2023-04-01T02:44:13;9.63;;;1.57;;
71572;SDS011;59408;51.032;9.410;2023-04-01T02:46:40;5.28;;;1.30;;
71572;SDS011;59408;51.032;9.410;2023-04-01T02:49:07;6.22;;;1.50;;
71572;SDS011;59408;51.032;9.410;2023-04-01T02:51:34;5.05;;;1.20;;
71572;SDS011;59408;51.032;9.410;2023-04-01T02:54:00;6.90;;;1.38;;
71572;SDS011;59408;51.032;9.410;2023-04-01T02:56:27;4.30;;;1.20;;
71572;SDS011;59408;51.032;9.410;2023-04-01T02:58:55;3.72;;;1.00;;
71572;SDS011;59408;51.032;9.410;2023-04-01T03:01:22;5.38;;;1.27;;
71572;SDS011;59408;51.032;9.410;2023-04-01T03:03:49;5.82;;;1.25;;
71572;SDS011;59408;51.032;9.410;2023-04-01T03:06:16;4.95;;;1.50;;
71572;SDS011;59408;51.032;9.410;2023-04-01T03:08:43;4.20;;;1.10;;
71572;SDS011;59408;51.032;9.410;2023-04-01T03:11:10;4.78;;;1.33;;
71572;SDS011;59408;51.032;9.410;2023-04-01T03:13:37;4.63;;;1.20;;
71572;SDS011;59408;51.032;9.410;2023-04-01T03:16:05;6.15;;;1.55;;
71572;SDS011;59408;51.032;9.410;2023-04-01T03:18:32;8.00;;;1.45;;
71572;SDS011;59408;51.032;9.410;2023-04-01T03:21:11;6.30;;;1.50;;
71572;SDS011;59408;51.032;9.410;2023-04-01T03:23:39;4.88;;;1.20;;
71572;SDS011;59408;51.032;9.410;2023-04-01T03:26:06;4.63;;;1.40;;
71572;SDS011;59408;51.032;9.410;2023-04-01T03:28:32;4.72;;;1.33;;
71572;SDS011;59408;51.032;9.410;2023-04-01T03:30:59;4.38;;;1.30;;
71572;SDS011;59408;51.032;9.410;2023-04-01T03:33:27;5.90;;;1.20;;
71572;SDS011;59408;51.032;9.410;2023-04-01T03:35:54;5.25;;;1.10;;
71572;SDS011;59408;51.032;9.410;2023-04-01T03:38:20;5.18;;;1.10;;
71572;SDS011;59408;51.032;9.410;2023-04-01T03:40:47;6.82;;;1.10;;
71572;SDS011;59408;51.032;9.410;2023-04-01T03:43:13;6.90;;;1.15;;
71572;SDS011;59408;51.032;9.410;2023-04-01T03:45:43;4.63;;;1.23;;
71572;SDS011;59408;51.032;9.410;2023-04-01T03:48:10;5.90;;;1.20;;
71572;SDS011;59408;51.032;9.410;2023-04-01T03:50:38;5.78;;;1.08;;
71572;SDS011;59408;51.032;9.410;2023-04-01T03:53:05;7.25;;;1.20;;
71572;SDS011;59408;51.032;9.410;2023-04-01T03:55:31;5.15;;;1.15;;
71572;SDS011;59408;51.032;9.410;2023-04-01T03:57:59;5.57;;;1.30;;
71572;SDS011;59408;51.032;9.410;2023-04-01T04:00:25;4.00;;;1.08;;
71572;SDS011;59408;51.032;9.410;2023-04-01T04:02:52;4.93;;;1.27;;
71572;SDS011;59408;51.032;9.410;2023-04-01T04:05:19;6.03;;;1.20;;
71572;SDS011;59408;51.032;9.410;2023-04-01T04:07:47;5.65;;;1.20;;
71572;SDS011;59408;51.032;9.410;2023-04-01T04:10:13;4.77;;;1.07;;
71572;SDS011;59408;51.032;9.410;2023-04-01T04:12:40;5.18;;;1.02;;
71572;SDS011;59408;51.032;9.410;2023-04-01T04:15:07;5.78;;;1.30;;
71572;SDS011;59408;51.032;9.410;2023-04-01T04:17:34;3.92;;;1.20;;
71572;SDS011;59408;51.032;9.410;2023-04-01T04:20:01;3.47;;;0.90;;
71572;SDS011;59408;51.032;9.410;2023-04-01T04:22:28;7.63;;;1.37;;
71572;SDS011;59408;51.032;9.410;2023-04-01T04:24:56;4.38;;;1.15;;
71572;SDS011;59408;51.032;9.410;2023-04-01T04:27:23;3.70;;;0.95;;
71572;SDS011;59408;51.032;9.410;2023-04-01T04:29:50;5.20;;;1.20;;
71572;SDS011;59408;51.032;9.410;2023-04-01T04:32:16;5.13;;;1.42;;
71572;SDS011;59408;51.032;9.410;2023-04-01T04:34:43;5.40;;;1.20;;
71572;SDS011;59408;51.032;9.410;2023-04-01T04:37:10;5.03;;;0.98;;
71572;SDS011;59408;51.032;9.410;2023-04-01T04:39:36;4.07;;;0.90;;
71572;SDS011;59408;51.032;9.410;2023-04-01T04:42:04;4.88;;;1.17;;
71572;SDS011;59408;51.032;9.410;2023-04-01T04:44:31;4.95;;;1.23;;
71572;SDS011;59408;51.032;9.410;2023-04-01T04:46:58;4.33;;;0.97;;
71572;SDS011;59408;51.032;9.410;2023-04-01T04:49:24;4.60;;;1.20;;
71572;SDS011;59408;51.032;9.410;2023-04-01T04:51:51;5.15;;;1.00;;
71572;SDS011;59408;51.032;9.410;2023-04-01T04:54:18;6.38;;;1.20;;
71572;SDS011;59408;51.032;9.410;2023-04-01T04:56:44;3.67;;;0.90;;
71572;SDS011;59408;51.032;9.410;2023-04-01T04:59:12;4.00;;;0.97;;
71572;SDS011;59408;51.032;9.410;2023-04-01T05:01:39;5.35;;;1.05;;
71572;SDS011;59408;51.032;9.410;2023-04-01T05:04:05;3.55;;;1.08;;
71572;SDS011;59408;51.032;9.410;2023-04-01T05:06:32;5.45;;;1.08;;
71572;SDS011;59408;51.032;9.410;2023-04-01T05:08:59;4.85;;;1.00;;
71572;SDS011;59408;51.032;9.410;2023-04-01T05:11:25;4.20;;;0.80;;
71572;SDS011;59408;51.032;9.410;2023-04-01T05:13:52;5.60;;;1.00;;
71572;SDS011;59408;51.032;9.410;2023-04-01T05:16:20;5.75;;;1.20;;
71572;SDS011;59408;51.032;9.410;2023-04-01T05:18:47;4.35;;;1.13;;
71572;SDS011;59408;51.032;9.410;2023-04-01T05:21:14;3.15;;;1.13;;
71572;SDS011;59408;51.032;9.410;2023-04-01T05:23:41;4.33;;;1.00;;
71572;SDS011;59408;51.032;9.410;2023-04-01T05:26:09;5.60;;;1.00;;
71572;SDS011;59408;51.032;9.410;2023-04-01T05:28:37;3.60;;;0.85;;
71572;SDS011;59408;51.032;9.410;2023-04-01T05:31:05;3.40;;;0.70;;
71572;SDS011;59408;51.032;9.410;2023-04-01T05:33:34;4.40;;;1.05;;
71572;SDS011;59408;51.032;9.410;2023-04-01T05:36:07;5.83;;;1.20;;
71572;SDS011;59408;51.032;9.410;2023-04-01T05:38:35;5.78;;;1.00;;
71572;SDS011;59408;51.032;9.410;2023-04-01T05:41:02;5.32;;;1.05;;
71572;SDS011;59408;51.032;9.410;2023-04-01T05:43:29;5.53;;;1.00;;
71572;SDS011;59408;51.032;9.410;2023-04-01T05:45:56;5.07;;;0.90;;
71572;SDS011;59408;51.032;9.410;2023-04-01T05:48:22;4.63;;;1.00;;
71572;SDS011;59408;51.032;9.410;2023-04-01T05:50:50;4.72;;;1.35;;
71572;SDS011;59408;51.032;9.410;2023-04-01T05:53:17;3.42;;;0.80;;
71572;SDS011;59408;51.032;9.410;2023-04-01T05:55:44;5.78;;;1.00;;
71572;SDS011;59408;51.032;9.410;2023-04-01T05:58:10;4.95;;;0.98;;
71572;SDS011;59408;51.032;9.410;2023-04-01T06:00:37;3.77;;;1.00;;
71572;SDS011;59408;51.032;9.410;2023-04-01T06:03:04;3.85;;;0.90;;
71572;SDS011;59408;51.032;9.410;2023-04-01T06:05:35;4.30;;;0.95;;
71572;SDS011;59408;51.032;9.410;2023-04-01T06:08:09;4.15;;;0.90;;
71572;SDS011;59408;51.032;9.410;2023-04-01T06:10:39;4.22;;;1.35;;
71572;SDS011;59408;51.032;9.410;2023-04-01T06:13:19;3.50;;;1.00;;
71572;SDS011;59408;51.032;9.410;2023-04-01T06:15:57;3.72;;;1.00;;
71572;SDS011;59408;51.032;9.410;2023-04-01T06:18:45;4.57;;;0.90;;
71572;SDS011;59408;51.032;9.410;2023-04-01T06:21:33;3.13;;;0.82;;
71572;SDS011;59408;51.032;9.410;2023-04-01T06:24:15;3.80;;;0.88;;
71572;SDS011;59408;51.032;9.410;2023-04-01T06:26:58;3.13;;;0.87;;
71572;SDS011;59408;51.032;9.410;2023-04-01T06:29:39;5.45;;;1.13;;
71572;SDS011;59408;51.032;9.410;2023-04-01T06:32:22;3.65;;;0.70;;
71572;SDS011;59408;51.032;9.410;2023-04-01T06:35:24;4.95;;;0.98;;
71572;SDS011;59408;51.032;9.410;2023-04-01T06:38:20;3.67;;;1.10;;
71572;SDS011;59408;51.032;9.410;2023-04-01T06:41:06;5.97;;;1.00;;
71572;SDS011;59408;51.032;9.410;2023-04-01T06:44:05;4.38;;;0.95;;
71572;SDS011;59408;51.032;9.410;2023-04-01T06:46:42;3.00;;;0.88;;
71572;SDS011;59408;51.032;9.410;2023-04-01T06:49:24;3.88;;;1.15;;
71572;SDS011;59408;51.032;9.410;2023-04-01T06:52:00;3.10;;;0.70;;
71572;SDS011;59408;51.032;9.410;2023-04-01T06:54:35;4.17;;;0.80;;
71572;SDS011;59408;51.032;9.410;2023-04-01T06:57:08;4.07;;;0.70;;
71572;SDS011;59408;51.032;9.410;2023-04-01T06:59:45;3.65;;;0.70;;
71572;SDS011;59408;51.032;9.410;2023-04-01T07:02:16;4.72;;;0.93;;
71572;SDS011;59408;51.032;9.410;2023-04-01T07:04:53;2.80;;;0.93;;
71572;SDS011;59408;51.032;9.410;2023-04-01T07:07:24;3.67;;;0.80;;
71572;SDS011;59408;51.032;9.410;2023-04-01T07:09:57;3.20;;;0.80;;
71572;SDS011;59408;51.032;9.410;2023-04-01T07:12:30;3.13;;;0.70;;
71572;SDS011;59408;51.032;9.410;2023-04-01T07:15:04;2.55;;;0.80;;
71572;SDS011;59408;51.032;9.410;2023-04-01T07:17:42;3.13;;;1.02;;
71572;SDS011;59408;51.032;9.410;2023-04-01T07:20:13;3.80;;;0.90;;
71572;SDS011;59408;51.032;9.410;2023-04-01T07:22:47;3.28;;;0.63;;
71572;SDS011;59408;51.032;9.410;2023-04-01T07:25:16;4.85;;;0.82;;
71572;SDS011;59408;51.032;9.410;2023-04-01T07:27:46;4.28;;;0.90;;
71572;SDS011;59408;51.032;9.410;2023-04-01T07:30:14;4.25;;;0.90;;
71572;SDS011;59408;51.032;9.410;2023-04-01T07:32:43;2.60;;;0.70;;
71572;SDS011;59408;51.032;9.410;2023-04-01T07:35:17;3.90;;;1.00;;
71572;SDS011;59408;51.032;9.410;2023-04-01T07:37:56;3.53;;;0.65;;
71572;SDS011;59408;51.032;9.410;2023-04-01T07:40:34;3.20;;;0.80;;
71572;SDS011;59408;51.032;9.410;2023-04-01T07:43:13;2.58;;;0.60;;
71572;SDS011;59408;51.032;9.410;2023-04-01T07:45:50;4.70;;;0.77;;
71572;SDS011;59408;51.032;9.410;2023-04-01T07:48:25;3.33;;;0.80;;
71572;SDS011;59408;51.032;9.410;2023-04-01T07:50:58;2.83;;;0.80;;
71572;SDS011;59408;51.032;9.410;2023-04-01T07:53:30;4.57;;;0.80;;
71572;SDS011;59408;51.032;9.410;2023-04-01T07:56:05;2.20;;;0.73;;
71572;SDS011;59408;51.032;9.410;2023-04-01T07:58:41;3.33;;;0.70;;
71572;SDS011;59408;51.032;9.410;2023-04-01T08:01:18;3.45;;;0.63;;
71572;SDS011;59408;51.032;9.410;2023-04-01T08:03:54;3.15;;;0.88;;
71572;SDS011;59408;51.032;9.410;2023-04-01T08:06:36;3.47;;;0.82;;
71572;SDS011;59408;51.032;9.410;2023-04-01T08:09:06;3.13;;;0.90;;
71572;SDS011;59408;51.032;9.410;2023-04-01T08:11:42;4.40;;;0.90;;
71572;SDS011;59408;51.032;9.410;2023-04-01T08:14:24;3.20;;;0.70;;
71572;SDS011;59408;51.032;9.410;2023-04-01T08:16:57;3.88;;;0.80;;
71572;SDS011;59408;51.032;9.410;2023-04-01T08:19:30;2.63;;;0.60;;
71572;SDS011;59408;51.032;9.410;2023-04-01T08:22:07;3.65;;;0.80;;
71572;SDS011;59408;51.032;9.410;2023-04-01T08:24:41;2.50;;;0.70;;
71572;SDS011;59408;51.032;9.410;2023-04-01T08:27:14;2.72;;;0.93;;
71572;SDS011;59408;51.032;9.410;2023-04-01T08:29:46;3.58;;;0.70;;
71572;SDS011;59408;51.032;9.410;2023-04-01T08:32:18;3.13;;;0.82;;
71572;SDS011;59408;51.032;9.410;2023-04-01T08:34:51;2.22;;;0.70;;
71572;SDS011;59408;51.032;9.410;2023-04-01T08:37:30;3.13;;;0.70;;
71572;SDS011;59408;51.032;9.410;2023-04-01T08:40:02;3.03;;;0.90;;
71572;SDS011;59408;51.032;9.410;2023-04-01T08:42:52;2.08;;;0.50;;
71572;SDS011;59408;51.032;9.410;2023-04-01T08:45:42;3.42;;;0.80;;
71572;SDS011;59408;51.032;9.410;2023-04-01T08:51:15;2.67;;;0.67;;
71572;SDS011;59408;51.032;9.410;2023-04-01T08:54:02;1.88;;;0.60;;
71572;SDS011;59408;51.032;9.410;2023-04-01T08:56:40;2.60;;;0.75;;
71572;SDS011;59408;51.032;9.410;2023-04-01T08:59:16;3.08;;;0.55;;
71572;SDS011;59408;51.032;9.410;2023-04-01T09:02:19;3.75;;;0.70;;
71572;SDS011;59408;51.032;9.410;2023-04-01T09:05:06;4.40;;;0.70;;
71572;SDS011;59408;51.032;9.410;2023-04-01T09:07:51;3.60;;;0.70;;
71572;SDS011;59408;51.032;9.410;2023-04-01T09:10:45;2.80;;;0.60;;
71572;SDS011;59408;51.032;9.410;2023-04-01T09:13:46;3.67;;;0.70;;
71572;SDS011;59408;51.032;9.410;2023-04-01T09:16:38;2.50;;;0.70;;
71572;SDS011;59408;51.032;9.410;2023-04-01T09:19:22;2.00;;;0.60;;
71572;SDS011;59408;51.032;9.410;2023-04-01T09:22:01;1.88;;;0.55;;
71572;SDS011;59408;51.032;9.410;2023-04-01T09:24:43;2.92;;;0.75;;
71572;SDS011;59408;51.032;9.410;2023-04-01T09:27:31;2.20;;;0.70;;
71572;SDS011;59408;51.032;9.410;2023-04-01T09:33:16;2.47;;;0.60;;
71572;SDS011;59408;51.032;9.410;2023-04-01T09:36:11;2.97;;;0.70;;
71572;SDS011;59408;51.032;9.410;2023-04-01T09:38:47;2.20;;;0.70;;
71572;SDS011;59408;51.032;9.410;2023-04-01T09:41:26;2.38;;;0.70;;
71572;SDS011;59408;51.032;9.410;2023-04-01T09:44:00;1.55;;;0.50;;
71572;SDS011;59408;51.032;9.410;2023-04-01T09:46:33;2.67;;;0.60;;
71572;SDS011;59408;51.032;9.410;2023-04-01T09:52:10;3.05;;;0.70;;
71572;SDS011;59408;51.032;9.410;2023-04-01T09:54:52;3.42;;;0.75;;
71572;SDS011;59408;51.032;9.410;2023-04-01T09:57:46;2.58;;;0.80;;
71572;SDS011;59408;51.032;9.410;2023-04-01T10:00:39;2.37;;;0.70;;
71572;SDS011;59408;51.032;9.410;2023-04-01T10:03:58;2.58;;;0.50;;
71572;SDS011;59408;51.032;9.410;2023-04-01T10:10:14;1.73;;;0.55;;
71572;SDS011;59408;51.032;9.410;2023-04-01T10:16:03;2.43;;;0.60;;
71572;SDS011;59408;51.032;9.410;2023-04-01T10:18:48;2.50;;;0.60;;
71572;SDS011;59408;51.032;9.410;2023-04-01T10:21:49;1.85;;;0.47;;
71572;SDS011;59408;51.032;9.410;2023-04-01T10:24:30;2.60;;;0.63;;
71572;SDS011;59408;51.032;9.410;2023-04-01T10:27:30;3.47;;;0.73;;
71572;SDS011;59408;51.032;9.410;2023-04-01T10:30:36;2.13;;;0.40;;
71572;SDS011;59408;51.032;9.410;2023-04-01T10:33:37;2.95;;;0.75;;
71572;SDS011;59408;51.032;9.410;2023-04-01T10:36:20;2.75;;;0.68;;
71572;SDS011;59408;51.032;9.410;2023-04-01T10:42:17;2.33;;;0.63;;
71572;SDS011;59408;51.032;9.410;2023-04-01T10:45:13;2.20;;;0.50;;
71572;SDS011;59408;51.032;9.410;2023-04-01T10:51:17;1.55;;;0.50;;
71572;SDS011;59408;51.032;9.410;2023-04-01T10:54:18;2.70;;;0.70;;
71572;SDS011;59408;51.032;9.410;2023-04-01T10:56:56;2.53;;;0.77;;
71572;SDS011;59408;51.032;9.410;2023-04-01T11:02:57;2.28;;;0.60;;
71572;SDS011;59408;51.032;9.410;2023-04-01T11:05:58;2.78;;;0.80;;
71572;SDS011;59408;51.032;9.410;2023-04-01T11:12:04;2.42;;;0.70;;
71572;SDS011;59408;51.032;9.410;2023-04-01T11:24:31;2.90;;;0.80;;
71572;SDS011;59408;51.032;9.410;2023-04-01T11:27:25;2.92;;;0.65;;
71572;SDS011;59408;51.032;9.410;2023-04-01T11:30:12;2.00;;;0.70;;
71572;SDS011;59408;51.032;9.410;2023-04-01T11:32:53;1.85;;;0.57;;
71572;SDS011;59408;51.032;9.410;2023-04-01T11:35:27;2.20;;;0.47;;
71572;SDS011;59408;51.032;9.410;2023-04-01T11:38:19;1.98;;;0.50;;
71572;SDS011;59408;51.032;9.410;2023-04-01T11:41:12;1.42;;;0.47;;
71572;SDS011;59408;51.032;9.410;2023-04-01T11:43:49;2.53;;;0.60;;
71572;SDS011;59408;51.032;9.410;2023-04-01T11:46:30;2.40;;;0.70;;
71572;SDS011;59408;51.032;9.410;2023-04-01T11:49:05;1.88;;;0.50;;
71572;SDS011;59408;51.032;9.410;2023-04-01T11:51:54;2.60;;;0.77;;
71572;SDS011;59408;51.032;9.410;2023-04-01T11:54:39;4.60;;;0.90;;
71572;SDS011;59408;51.032;9.410;2023-04-01T11:57:25;4.43;;;1.40;;
71572;SDS011;59408;51.032;9.410;2023-04-01T12:00:18;1.98;;;0.63;;
71572;SDS011;59408;51.032;9.410;2023-04-01T12:03:02;3.63;;;1.20;;
71572;SDS011;59408;51.032;9.410;2023-04-01T12:05:43;3.05;;;0.90;;
71572;SDS011;59408;51.032;9.410;2023-04-01T12:08:20;2.17;;;0.60;;
71572;SDS011;59408;51.032;9.410;2023-04-01T12:10:59;3.37;;;0.90;;
71572;SDS011;59408;51.032;9.410;2023-04-01T12:13:37;2.25;;;0.63;;
71572;SDS011;59408;51.032;9.410;2023-04-01T12:16:12;2.10;;;0.65;;
71572;SDS011;59408;51.032;9.410;2023-04-01T12:18:50;2.63;;;0.50;;
71572;SDS011;59408;51.032;9.410;2023-04-01T12:21:23;2.08;;;0.70;;
71572;SDS011;59408;51.032;9.410;2023-04-01T12:24:01;3.10;;;0.87;;
71572;SDS011;59408;51.032;9.410;2023-04-01T12:26:43;2.58;;;0.70;;
71572;SDS011;59408;51.032;9.410;2023-04-01T12:29:37;3.25;;;1.08;;
71572;SDS011;59408;51.032;9.410;2023-04-01T12:32:25;3.75;;;1.00;;
71572;SDS011;59408;51.032;9.410;2023-04-01T12:35:02;3.63;;;0.82;;
71572;SDS011;59408;51.032;9.410;2023-04-01T12:38:01;3.77;;;0.80;;
71572;SDS011;59408;51.032;9.410;2023-04-01T12:40:44;2.55;;;0.80;;
71572;SDS011;59408;51.032;9.410;2023-04-01T12:46:26;2.78;;;0.80;;
71572;SDS011;59408;51.032;9.410;2023-04-01T12:49:06;4.40;;;1.58;;
71572;SDS011;59408;51.032;9.410;2023-04-01T12:51:48;4.00;;;1.30;;
71572;SDS011;59408;51.032;9.410;2023-04-01T12:54:34;4.75;;;1.50;;
71572;SDS011;59408;51.032;9.410;2023-04-01T12:57:21;4.22;;;1.25;;
71572;SDS011;59408;51.032;9.410;2023-04-01T13:00:03;6.32;;;1.48;;
71572;SDS011;59408;51.032;9.410;2023-04-01T13:02:46;4.28;;;1.30;;
71572;SDS011;59408;51.032;9.410;2023-04-01T13:05:29;4.17;;;0.80;;
71572;SDS011;59408;51.032;9.410;2023-04-01T13:08:19;3.35;;;0.90;;
71572;SDS011;59408;51.032;9.410;2023-04-01T13:10:59;3.25;;;0.85;;
71572;SDS011;59408;51.032;9.410;2023-04-01T13:13:45;2.63;;;0.88;;
71572;SDS011;59408;51.032;9.410;2023-04-01T13:16:29;2.53;;;0.80;;
71572;SDS011;59408;51.032;9.410;2023-04-01T13:19:01;3.63;;;1.00;;
71572;SDS011;59408;51.032;9.410;2023-04-01T13:21:34;2.95;;;0.80;;
71572;SDS011;59408;51.032;9.410;2023-04-01T13:24:11;4.25;;;0.98;;
71572;SDS011;59408;51.032;9.410;2023-04-01T13:26:52;3.40;;;0.90;;
71572;SDS011;59408;51.032;9.410;2023-04-01T13:29:25;2.78;;;0.60;;
71572;SDS011;59408;51.032;9.410;2023-04-01T13:32:03;2.87;;;0.60;;
71572;SDS011;59408;51.032;9.410;2023-04-01T13:34:46;3.17;;;0.80;;
71572;SDS011;59408;51.032;9.410;2023-04-01T13:37:25;4.35;;;1.33;;
71572;SDS011;59408;51.032;9.410;2023-04-01T13:40:05;5.18;;;1.67;;
71572;SDS011;59408;51.032;9.410;2023-04-01T13:42:45;3.20;;;1.00;;
71572;SDS011;59408;51.032;9.410;2023-04-01T13:45:16;3.43;;;1.20;;
71572;SDS011;59408;51.032;9.410;2023-04-01T13:48:00;3.75;;;1.20;;
71572;SDS011;59408;51.032;9.410;2023-04-01T13:56:49;3.10;;;1.00;;
71572;SDS011;59408;51.032;9.410;2023-04-01T13:59:39;2.03;;;0.57;;
71572;SDS011;59408;51.032;9.410;2023-04-01T14:02:17;2.60;;;0.70;;
71572;SDS011;59408;51.032;9.410;2023-04-01T14:05:06;2.85;;;0.93;;
71572;SDS011;59408;51.032;9.410;2023-04-01T14:08:08;2.45;;;0.60;;
71572;SDS011;59408;51.032;9.410;2023-04-01T14:10:44;2.50;;;0.80;;
71572;SDS011;59408;51.032;9.410;2023-04-01T14:13:23;2.83;;;0.80;;
71572;SDS011;59408;51.032;9.410;2023-04-01T14:16:04;3.30;;;0.82;;
71572;SDS011;59408;51.032;9.410;2023-04-01T14:18:58;3.08;;;0.90;;
71572;SDS011;59408;51.032;9.410;2023-04-01T14:21:35;5.00;;;1.60;;
71572;SDS011;59408;51.032;9.410;2023-04-01T14:27:20;3.17;;;1.10;;
71572;SDS011;59408;51.032;9.410;2023-04-01T14:33:04;8.45;;;4.40;;
71572;SDS011;59408;51.032;9.410;2023-04-01T14:35:38;4.18;;;1.50;;
71572;SDS011;59408;51.032;9.410;2023-04-01T14:38:30;4.00;;;0.95;;
71572;SDS011;59408;51.032;9.410;2023-04-01T14:41:20;4.80;;;1.60;;
71572;SDS011;59408;51.032;9.410;2023-04-01T14:44:05;3.47;;;0.90;;
71572;SDS011;59408;51.032;9.410;2023-04-01T14:46:53;4.65;;;0.95;;
71572;SDS011;59408;51.032;9.410;2023-04-01T14:49:37;3.03;;;0.88;;
71572;SDS011;59408;51.032;9.410;2023-04-01T14:52:10;3.95;;;1.10;;
71572;SDS011;59408;51.032;9.410;2023-04-01T14:54:41;3.13;;;0.80;;
71572;SDS011;59408;51.032;9.410;2023-04-01T14:57:13;3.95;;;1.20;;
71572;SDS011;59408;51.032;9.410;2023-04-01T14:59:41;3.40;;;0.90;;
71572;SDS011;59408;51.032;9.410;2023-04-01T15:02:17;3.20;;;1.00;;
71572;SDS011;59408;51.032;9.410;2023-04-01T15:05:02;3.58;;;1.20;;
71572;SDS011;59408;51.032;9.410;2023-04-01T15:07:56;5.17;;;1.50;;
71572;SDS011;59408;51.032;9.410;2023-04-01T15:13:38;5.45;;;1.55;;
71572;SDS011;59408;51.032;9.410;2023-04-01T15:16:17;6.97;;;2.30;;
71572;SDS011;59408;51.032;9.410;2023-04-01T15:18:53;4.20;;;1.30;;
71572;SDS011;59408;51.032;9.410;2023-04-01T15:21:32;5.40;;;1.63;;
71572;SDS011;59408;51.032;9.410;2023-04-01T15:24:11;5.20;;;1.70;;
71572;SDS011;59408;51.032;9.410;2023-04-01T15:26:49;4.68;;;1.70;;
71572;SDS011;59408;51.032;9.410;2023-04-01T15:29:33;4.70;;;1.60;;
71572;SDS011;59408;51.032;9.410;2023-04-01T15:32:24;4.75;;;1.92;;
71572;SDS011;59408;51.032;9.410;2023-04-01T15:34:59;4.40;;;1.50;;
71572;SDS011;59408;51.032;9.410;2023-04-01T15:37:37;5.13;;;1.80;;
71572;SDS011;59408;51.032;9.410;2023-04-01T15:40:15;4.60;;;1.73;;
71572;SDS011;59408;51.032;9.410;2023-04-01T15:42:53;5.68;;;2.22;;
71572;SDS011;59408;51.032;9.410;2023-04-01T15:45:33;5.18;;;2.30;;
71572;SDS011;59408;51.032;9.410;2023-04-01T15:48:13;6.10;;;2.77;;
71572;SDS011;59408;51.032;9.410;2023-04-01T15:50:54;6.03;;;2.35;;
71572;SDS011;59408;51.032;9.410;2023-04-01T15:53:43;5.40;;;1.90;;
71572;SDS011;59408;51.032;9.410;2023-04-01T15:56:28;6.03;;;2.20;;
71572;SDS011;59408;51.032;9.410;2023-04-01T15:59:13;5.50;;;2.10;;
71572;SDS011;59408;51.032;9.410;2023-04-01T16:01:53;5.43;;;2.00;;
71572;SDS011;59408;51.032;9.410;2023-04-01T16:04:29;4.60;;;1.90;;
71572;SDS011;59408;51.032;9.410;2023-04-01T16:07:10;5.10;;;2.20;;
71572;SDS011;59408;51.032;9.410;2023-04-01T16:09:54;4.85;;;1.92;;
71572;SDS011;59408;51.032;9.410;2023-04-01T16:12:41;9.00;;;5.93;;
71572;SDS011;59408;51.032;9.410;2023-04-01T16:15:21;5.97;;;2.50;;
71572;SDS011;59408;51.032;9.410;2023-04-01T16:17:59;6.28;;;2.80;;
71572;SDS011;59408;51.032;9.410;2023-04-01T16:20:46;8.10;;;3.10;;
71572;SDS011;59408;51.032;9.410;2023-04-01T16:23:22;7.95;;;3.13;;
71572;SDS011;59408;51.032;9.410;2023-04-01T16:26:01;8.18;;;3.55;;
71572;SDS011;59408;51.032;9.410;2023-04-01T16:28:34;8.43;;;3.20;;
71572;SDS011;59408;51.032;9.410;2023-04-01T16:31:06;8.50;;;3.30;;
71572;SDS011;59408;51.032;9.410;2023-04-01T16:33:43;8.90;;;3.38;;
71572;SDS011;59408;51.032;9.410;2023-04-01T16:36:20;6.70;;;2.80;;
71572;SDS011;59408;51.032;9.410;2023-04-01T16:38:55;6.88;;;2.83;;
71572;SDS011;59408;51.032;9.410;2023-04-01T16:41:36;6.00;;;2.73;;